createdAt,value
2017-11-17T00:01:19.322Z,94.60
2017-11-17T00:03:47.459Z,94.60
2017-11-17T00:06:15.609Z,94.60
2017-11-17T00:08:44.051Z,94.60
2017-11-17T00:11:12.258Z,94.20
2017-11-17T00:13:40.792Z,94.60
2017-11-17T00:16:08.975Z,94.40
2017-11-17T00:18:37.663Z,94.60
2017-11-17T00:21:05.834Z,94.60
2017-11-17T00:23:34.002Z,94.60
2017-11-17T00:26:02.683Z,94.60
2017-11-17T00:28:30.902Z,94.60
2017-11-17T00:30:59.678Z,94.70
2017-11-17T00:33:27.844Z,94.40
2017-11-17T00:35:55.999Z,94.50
2017-11-17T00:38:24.164Z,94.30
2017-11-17T00:40:52.317Z,94.40
2017-11-17T00:43:20.504Z,94.40
2017-11-17T00:45:48.663Z,94.50
2017-11-17T00:48:16.812Z,94.70
2017-11-17T00:50:45.743Z,94.40
2017-11-17T00:53:14.110Z,94.40
2017-11-17T00:55:42.280Z,94.40
2017-11-17T00:58:10.427Z,94.30
2017-11-17T01:00:39.371Z,94.30
2017-11-17T01:03:07.528Z,94.30
2017-11-17T01:05:35.703Z,94.10
2017-11-17T01:08:03.845Z,94.10
2017-11-17T01:10:32.784Z,94.20
2017-11-17T01:13:00.944Z,94.20
2017-11-17T01:15:29.121Z,94.10
2017-11-17T01:17:57.308Z,94.00
2017-11-17T01:20:25.478Z,94.00
2017-11-17T01:22:53.635Z,94.30
2017-11-17T01:25:21.776Z,94.20
2017-11-17T01:27:49.954Z,94.20
2017-11-17T01:30:18.110Z,94.00
2017-11-17T01:32:47.048Z,93.70
2017-11-17T01:35:15.226Z,93.70
2017-11-17T01:37:43.395Z,93.70
2017-11-17T01:40:11.564Z,93.60
2017-11-17T01:42:39.734Z,93.40
2017-11-17T01:45:07.919Z,93.50
2017-11-17T01:47:36.096Z,93.60
2017-11-17T01:50:04.244Z,93.70
2017-11-17T01:52:32.430Z,93.90
2017-11-17T01:55:00.609Z,94.20
2017-11-17T01:57:28.793Z,94.20
2017-11-17T01:59:56.959Z,94.50
2017-11-17T02:02:25.240Z,94.70
2017-11-17T02:04:53.404Z,94.70
2017-11-17T02:07:22.514Z,94.70
2017-11-17T02:09:50.679Z,94.70
2017-11-17T02:12:18.818Z,95.10
2017-11-17T02:14:46.979Z,95.10
2017-11-17T02:17:15.135Z,95.00
2017-11-17T02:19:44.066Z,95.00
2017-11-17T02:22:12.219Z,95.00
2017-11-17T02:24:40.426Z,94.80
2017-11-17T02:27:08.576Z,95.10
2017-11-17T02:29:36.748Z,95.30
2017-11-17T02:32:05.017Z,95.40
2017-11-17T02:34:33.175Z,95.60
2017-11-17T02:37:01.479Z,95.60
2017-11-17T02:39:29.642Z,95.70
2017-11-17T02:41:57.799Z,95.50
2017-11-17T02:44:25.966Z,95.70
2017-11-17T02:46:54.115Z,95.60
2017-11-17T02:49:23.060Z,95.80
2017-11-17T02:51:51.229Z,95.80
2017-11-17T02:54:19.408Z,95.70
2017-11-17T02:56:47.585Z,95.70
2017-11-17T02:59:15.736Z,95.80
2017-11-17T03:01:43.902Z,95.80
2017-11-17T03:04:12.080Z,95.90
2017-11-17T03:06:40.248Z,95.90
2017-11-17T03:09:08.400Z,95.80
2017-11-17T03:11:37.351Z,95.90
2017-11-17T03:14:05.494Z,95.90
2017-11-17T03:16:33.651Z,96.00
2017-11-17T03:19:01.811Z,96.00
2017-11-17T03:21:30.747Z,96.10
2017-11-17T03:23:58.901Z,96.10
2017-11-17T03:26:27.369Z,96.00
2017-11-17T03:28:56.314Z,95.90
2017-11-17T03:31:24.474Z,95.90
2017-11-17T03:33:52.617Z,96.00
2017-11-17T03:36:20.782Z,95.80
2017-11-17T03:38:48.932Z,95.90
2017-11-17T03:41:17.868Z,96.00
2017-11-17T03:43:46.006Z,95.90
2017-11-17T03:46:14.177Z,96.00
2017-11-17T03:48:43.102Z,96.00
2017-11-17T03:51:11.259Z,96.00
2017-11-17T03:53:39.436Z,95.90
2017-11-17T03:56:07.627Z,96.00
2017-11-17T03:58:35.814Z,96.00
2017-11-17T04:01:03.963Z,96.10
2017-11-17T04:03:32.110Z,96.20
2017-11-17T04:06:00.320Z,96.10
2017-11-17T04:08:28.588Z,96.40
2017-11-17T04:10:56.750Z,96.10
2017-11-17T04:13:24.925Z,96.10
2017-11-17T04:15:53.076Z,96.00
2017-11-17T04:18:21.631Z,96.20
2017-11-17T04:20:50.687Z,96.40
2017-11-17T04:23:18.873Z,96.20
2017-11-17T04:25:47.041Z,96.20
2017-11-17T04:28:15.206Z,96.20
2017-11-17T04:30:43.388Z,96.30
2017-11-17T04:33:11.556Z,96.20
2017-11-17T04:35:39.720Z,96.40
2017-11-17T04:38:07.862Z,96.40
2017-11-17T04:40:36.019Z,96.50
2017-11-17T04:43:04.939Z,96.50
2017-11-17T04:45:33.125Z,96.50
2017-11-17T04:48:01.280Z,96.50
2017-11-17T04:50:29.494Z,96.60
2017-11-17T04:52:57.755Z,96.40
2017-11-17T04:55:25.920Z,96.40
2017-11-17T04:57:54.102Z,96.30
2017-11-17T05:00:22.283Z,96.20
2017-11-17T05:02:50.437Z,96.20
2017-11-17T05:05:18.590Z,96.20
2017-11-17T05:07:46.765Z,96.20
2017-11-17T05:10:14.953Z,96.30
2017-11-17T05:12:43.128Z,96.00
2017-11-17T05:15:11.274Z,95.90
2017-11-17T05:17:39.431Z,95.80
2017-11-17T05:20:09.285Z,95.50
2017-11-17T05:22:37.456Z,95.50
2017-11-17T05:25:05.611Z,95.40
2017-11-17T05:27:33.808Z,95.40
2017-11-17T05:30:02.000Z,95.50
2017-11-17T05:32:30.191Z,95.40
2017-11-17T05:34:58.351Z,95.20
2017-11-17T05:37:26.561Z,95.00
2017-11-17T05:39:56.232Z,95.00
2017-11-17T05:42:24.392Z,95.00
2017-11-17T05:44:52.569Z,95.00
2017-11-17T05:47:20.715Z,95.00
2017-11-17T05:49:48.892Z,95.00
2017-11-17T05:52:17.116Z,95.00
2017-11-17T05:54:46.044Z,94.80
2017-11-17T05:57:14.214Z,94.80
2017-11-17T05:59:42.396Z,94.70
2017-11-17T06:02:10.567Z,94.90
2017-11-17T06:04:38.741Z,94.70
2017-11-17T06:07:06.888Z,94.60
2017-11-17T06:09:35.047Z,94.70
2017-11-17T06:12:03.972Z,94.50
2017-11-17T06:14:32.139Z,94.50
2017-11-17T06:17:00.287Z,94.00
2017-11-17T06:19:29.215Z,93.70
2017-11-17T06:21:57.377Z,93.70
2017-11-17T06:24:25.539Z,93.60
2017-11-17T06:26:53.692Z,93.70
2017-11-17T06:29:22.660Z,93.70
2017-11-17T06:31:50.797Z,93.70
2017-11-17T06:34:18.979Z,93.60
2017-11-17T06:36:47.141Z,93.60
2017-11-17T06:39:15.877Z,93.40
2017-11-17T06:41:44.052Z,93.50
2017-11-17T06:44:12.963Z,93.30
2017-11-17T06:46:41.242Z,93.30
2017-11-17T06:49:09.387Z,93.20
2017-11-17T06:51:37.550Z,93.00
2017-11-17T06:54:05.812Z,93.00
2017-11-17T06:56:34.908Z,93.00
2017-11-17T06:59:03.064Z,93.00
2017-11-17T07:01:31.250Z,93.00
2017-11-17T07:03:59.804Z,93.00
2017-11-17T07:06:27.972Z,92.80
2017-11-17T07:08:56.110Z,92.60
2017-11-17T07:11:25.056Z,92.40
2017-11-17T07:13:53.266Z,92.40
2017-11-17T07:16:21.447Z,92.60
2017-11-17T07:18:50.372Z,92.70
2017-11-17T07:21:18.550Z,92.60
2017-11-17T07:23:46.686Z,92.90
2017-11-17T07:26:15.609Z,92.90
2017-11-17T07:28:43.807Z,92.90
2017-11-17T07:31:11.963Z,93.00
2017-11-17T07:33:40.150Z,92.90
2017-11-17T07:36:08.313Z,92.80
2017-11-17T07:38:36.487Z,92.90
2017-11-17T07:41:04.682Z,92.80
2017-11-17T07:43:32.839Z,92.90
2017-11-17T07:46:00.993Z,92.70
2017-11-17T07:48:29.168Z,92.90
2017-11-17T07:50:57.334Z,92.80
2017-11-17T07:53:25.552Z,92.70
2017-11-17T07:55:53.736Z,92.50
2017-11-17T07:58:21.923Z,92.50
2017-11-17T08:00:50.835Z,92.30
2017-11-17T08:03:18.986Z,92.30
2017-11-17T08:05:48.028Z,91.80
2017-11-17T08:08:16.200Z,91.80
2017-11-17T08:10:44.350Z,91.80
2017-11-17T08:13:12.491Z,92.00
2017-11-17T08:15:41.593Z,91.60
2017-11-17T08:18:28.437Z,92.00
2017-11-17T08:20:56.604Z,92.00
2017-11-17T08:23:24.813Z,91.60
2017-11-17T08:25:53.310Z,91.60
2017-11-17T08:28:21.473Z,91.60
2017-11-17T08:30:49.642Z,91.10
2017-11-17T08:33:17.810Z,91.00
2017-11-17T08:35:46.017Z,91.00
2017-11-17T08:38:14.240Z,91.10
2017-11-17T08:40:42.523Z,91.10
2017-11-17T08:43:10.750Z,90.60
2017-11-17T08:45:39.681Z,90.10
2017-11-17T08:48:07.848Z,90.10
2017-11-17T08:50:36.741Z,88.60
2017-11-17T08:53:06.028Z,88.30
2017-11-17T08:55:36.480Z,87.40
2017-11-17T08:58:07.895Z,87.40
2017-11-17T09:00:36.130Z,87.40
2017-11-17T09:03:04.287Z,87.40
2017-11-17T09:05:32.437Z,87.50
2017-11-17T09:08:00.616Z,86.30
2017-11-17T09:10:29.455Z,85.20
2017-11-17T09:12:58.399Z,84.40
2017-11-17T09:15:26.547Z,84.30
2017-11-17T09:17:55.307Z,83.00
2017-11-17T09:20:25.072Z,82.00
2017-11-17T09:22:53.246Z,82.00
2017-11-17T09:25:21.431Z,83.10
2017-11-17T09:27:50.437Z,82.60
2017-11-17T09:30:18.717Z,80.80
2017-11-17T09:32:46.876Z,78.80
2017-11-17T09:35:15.056Z,77.70
2017-11-17T09:37:43.207Z,77.00
2017-11-17T09:40:11.384Z,75.70
2017-11-17T09:42:39.548Z,75.50
2017-11-17T09:45:07.720Z,75.70
2017-11-17T09:47:35.879Z,73.10
2017-11-17T09:50:04.115Z,74.80
2017-11-17T09:52:33.057Z,70.40
2017-11-17T09:55:01.211Z,70.40
2017-11-17T09:57:29.365Z,69.00
2017-11-17T09:59:57.555Z,69.10
2017-11-17T10:02:25.737Z,67.00
2017-11-17T10:04:53.909Z,67.00
2017-11-17T10:07:22.118Z,66.20
2017-11-17T10:09:50.271Z,66.90
2017-11-17T10:12:18.436Z,68.20
2017-11-17T10:14:46.587Z,67.20
2017-11-17T10:17:14.980Z,65.40
2017-11-17T10:19:43.121Z,64.50
2017-11-17T10:22:11.298Z,64.20
2017-11-17T10:27:36.544Z,57.50
2017-11-17T10:30:04.618Z,58.50
2017-11-17T10:32:32.740Z,57.20
2017-11-17T10:35:00.820Z,54.80
2017-11-17T10:37:28.892Z,55.30
2017-11-17T10:39:57.741Z,53.00
2017-11-17T10:42:25.847Z,53.00
2017-11-17T10:44:54.706Z,51.10
2017-11-17T10:47:22.799Z,51.10
2017-11-17T10:49:50.872Z,48.40
2017-11-17T10:52:18.944Z,47.80
2017-11-17T10:54:47.020Z,47.60
2017-11-17T10:57:15.889Z,48.40
2017-11-17T10:59:45.753Z,48.30
2017-11-17T11:02:13.821Z,47.60
2017-11-17T11:04:41.910Z,47.10
2017-11-17T11:07:09.984Z,43.80
2017-11-17T11:09:38.114Z,40.80
2017-11-17T11:12:06.996Z,41.70
2017-11-17T11:14:35.075Z,41.50
2017-11-17T11:17:03.935Z,40.00
2017-11-17T11:19:32.029Z,41.20
2017-11-17T11:22:01.715Z,39.70
2017-11-17T11:24:29.790Z,38.40
2017-11-17T11:26:57.890Z,35.70
2017-11-17T11:29:25.967Z,33.40
2017-11-17T11:31:54.045Z,32.90
2017-11-17T11:34:22.159Z,32.90
2017-11-17T11:36:50.228Z,31.70
2017-11-17T11:39:18.295Z,30.90
2017-11-17T11:41:46.390Z,30.10
2017-11-17T11:44:14.556Z,29.30
2017-11-17T11:46:42.732Z,27.00
2017-11-17T11:49:10.809Z,27.30
2017-11-17T11:51:38.892Z,25.30
2017-11-17T11:54:07.744Z,24.10
2017-11-17T11:56:35.817Z,24.10
2017-11-17T11:59:03.911Z,23.20
2017-11-17T12:01:32.019Z,23.90
2017-11-17T12:04:00.086Z,21.30
2017-11-17T12:06:28.160Z,20.10
2017-11-17T12:08:56.239Z,20.50
2017-11-17T12:11:24.924Z,19.10
2017-11-17T12:13:53.646Z,19.50
2017-11-17T12:16:21.725Z,19.30
2017-11-17T12:18:49.893Z,18.90
2017-11-17T12:21:17.988Z,18.50
2017-11-17T12:23:46.059Z,17.60
2017-11-17T12:26:14.909Z,17.90
2017-11-17T12:28:42.985Z,17.00
2017-11-17T12:31:11.069Z,16.30
2017-11-17T12:33:39.148Z,17.00
2017-11-17T12:36:07.424Z,16.90
2017-11-17T12:38:36.254Z,16.70
2017-11-17T12:41:04.315Z,16.30
2017-11-17T12:43:32.392Z,16.60
2017-11-17T12:46:00.473Z,16.30
2017-11-17T12:48:28.593Z,16.50
2017-11-17T12:50:56.665Z,16.50
2017-11-17T12:53:24.775Z,16.60
2017-11-17T12:55:52.853Z,15.80
2017-11-17T12:58:20.928Z,15.30
2017-11-17T13:00:49.003Z,16.10
2017-11-17T13:03:17.075Z,16.20
2017-11-17T13:05:45.140Z,16.40
2017-11-17T13:08:13.221Z,16.50
2017-11-17T13:10:41.300Z,16.30
2017-11-17T13:13:09.385Z,16.60
2017-11-17T13:15:37.465Z,18.00
2017-11-17T13:18:05.551Z,20.00
2017-11-17T13:20:33.626Z,21.40
2017-11-17T13:23:02.469Z,22.50
2017-11-17T13:25:30.617Z,22.60
2017-11-17T13:27:58.684Z,23.40
2017-11-17T13:30:26.861Z,23.40
2017-11-17T13:32:55.621Z,22.50
2017-11-17T13:35:24.470Z,21.80
2017-11-17T13:37:52.548Z,21.80
2017-11-17T13:40:20.667Z,21.20
2017-11-17T13:42:49.371Z,19.80
2017-11-17T13:45:17.481Z,18.40
2017-11-17T13:47:45.657Z,18.10
2017-11-17T13:50:13.738Z,17.80
2017-11-17T13:52:41.808Z,18.50
2017-11-17T13:55:09.871Z,17.90
2017-11-17T13:57:38.052Z,18.00
2017-11-17T14:00:06.120Z,17.40
2017-11-17T14:02:34.183Z,17.10
2017-11-17T14:05:02.280Z,17.40
2017-11-17T14:07:31.135Z,17.50
2017-11-17T14:09:59.204Z,17.50
2017-11-17T14:12:27.280Z,17.30
2017-11-17T14:14:55.356Z,18.00
2017-11-17T14:17:23.546Z,17.90
2017-11-17T14:19:52.385Z,18.50
2017-11-17T14:22:20.476Z,18.50
2017-11-17T14:24:49.341Z,19.50
2017-11-17T14:27:17.407Z,19.50
2017-11-17T14:29:45.553Z,19.80
2017-11-17T14:32:13.738Z,20.90
2017-11-17T14:34:41.873Z,22.20
2017-11-17T14:37:09.984Z,23.10
2017-11-17T14:39:38.092Z,24.40
2017-11-17T14:42:06.157Z,25.90
2017-11-17T14:44:34.288Z,27.80
2017-11-17T14:47:02.358Z,28.90
2017-11-17T14:49:31.224Z,30.60
2017-11-17T14:51:59.300Z,30.60
2017-11-17T14:54:28.158Z,32.80
2017-11-17T14:56:56.234Z,32.80
2017-11-17T14:59:24.433Z,34.70
2017-11-17T15:01:53.292Z,37.20
2017-11-17T15:04:21.378Z,37.20
2017-11-17T15:06:50.353Z,38.50
2017-11-17T15:09:18.556Z,39.00
2017-11-17T15:11:47.394Z,42.40
2017-11-17T15:14:15.462Z,41.90
2017-11-17T15:16:43.537Z,42.60
2017-11-17T15:19:11.611Z,43.80
2017-11-17T15:21:39.707Z,44.40
2017-11-17T15:24:07.772Z,45.40
2017-11-17T15:26:35.882Z,46.30
2017-11-17T15:29:04.473Z,47.30
2017-11-17T15:31:32.665Z,48.60
2017-11-17T15:34:00.728Z,48.80
2017-11-17T15:36:28.816Z,49.40
2017-11-17T15:38:56.921Z,50.60
2017-11-17T15:41:25.509Z,52.00
2017-11-17T15:43:54.353Z,52.20
2017-11-17T15:46:23.085Z,52.00
2017-11-17T15:48:51.148Z,52.50
2017-11-17T15:51:19.319Z,53.40
2017-11-17T15:53:47.400Z,53.80
2017-11-17T15:56:15.478Z,55.40
2017-11-17T15:58:44.351Z,56.80
2017-11-17T16:01:12.438Z,56.80
2017-11-17T16:03:41.271Z,58.70
2017-11-17T16:06:11.729Z,58.60
2017-11-17T16:08:39.816Z,60.10
2017-11-17T16:11:07.892Z,61.20
2017-11-17T16:13:36.737Z,62.50
2017-11-17T16:16:04.800Z,62.40
2017-11-17T16:18:32.897Z,63.40
2017-11-17T16:21:00.971Z,63.80
2017-11-17T16:23:29.049Z,63.60
2017-11-17T16:25:57.216Z,63.70
2017-11-17T16:28:25.288Z,63.70
2017-11-17T16:30:53.470Z,64.30
2017-11-17T16:33:21.551Z,64.90
2017-11-17T16:35:50.382Z,65.00
2017-11-17T16:38:18.448Z,64.70
2017-11-17T16:40:46.571Z,65.00
2017-11-17T16:43:14.638Z,65.10
2017-11-17T16:45:42.712Z,65.10
2017-11-17T16:48:10.826Z,65.40
2017-11-17T16:50:38.965Z,65.20
2017-11-17T16:53:07.120Z,65.80
2017-11-17T16:55:35.208Z,68.10
2017-11-17T16:58:03.269Z,67.70
2017-11-17T17:00:31.349Z,67.80
2017-11-17T17:02:59.413Z,68.10
2017-11-17T17:05:27.512Z,67.40
2017-11-17T17:07:55.591Z,70.20
2017-11-17T17:10:23.667Z,70.00
2017-11-17T17:12:51.745Z,69.40
2017-11-17T17:15:19.816Z,69.70
2017-11-17T17:17:47.900Z,69.60
2017-11-17T17:20:15.993Z,70.40
2017-11-17T17:22:44.064Z,71.20
2017-11-17T17:25:12.141Z,71.20
2017-11-17T17:27:40.210Z,71.70
2017-11-17T17:30:08.282Z,71.60
2017-11-17T17:32:36.357Z,72.20
2017-11-17T17:35:04.429Z,73.60
2017-11-17T17:37:32.525Z,73.90
2017-11-17T17:40:01.351Z,75.00
2017-11-17T17:42:29.424Z,75.00
2017-11-17T17:44:57.491Z,75.10
2017-11-17T17:47:25.563Z,75.50
2017-11-17T17:49:53.631Z,75.10
2017-11-17T17:52:21.719Z,75.00
2017-11-17T17:54:49.793Z,75.10
2017-11-17T17:57:17.864Z,75.40
2017-11-17T17:59:45.941Z,76.20
2017-11-17T18:02:19.909Z,76.20
2017-11-17T18:04:47.992Z,76.40
2017-11-17T18:07:16.061Z,77.40
2017-11-17T18:09:44.138Z,77.60
2017-11-17T18:12:12.696Z,77.50
2017-11-17T18:14:40.774Z,77.50
2017-11-17T18:17:08.853Z,78.10
2017-11-17T18:19:36.962Z,78.30
2017-11-17T18:22:05.024Z,78.20
2017-11-17T18:24:33.155Z,78.30
2017-11-17T18:27:01.964Z,79.60
2017-11-17T18:29:30.268Z,78.60
2017-11-17T18:31:58.439Z,78.70
2017-11-17T18:34:26.528Z,79.10
2017-11-17T18:36:54.580Z,79.70
2017-11-17T18:39:22.664Z,79.90
2017-11-17T18:41:50.881Z,79.80
2017-11-17T18:44:18.916Z,80.10
2017-11-17T18:46:46.986Z,79.90
2017-11-17T18:49:15.820Z,79.60
2017-11-17T18:51:43.952Z,80.40
2017-11-17T18:54:12.028Z,80.50
2017-11-17T18:56:40.151Z,81.10
2017-11-17T18:59:09.164Z,81.00
2017-11-17T19:01:37.248Z,81.00
2017-11-17T19:04:06.088Z,81.20
2017-11-17T19:06:34.159Z,81.20
2017-11-17T19:09:02.229Z,81.00
2017-11-17T19:11:30.340Z,81.60
2017-11-17T19:13:58.396Z,82.60
2017-11-17T19:16:26.466Z,82.70
2017-11-17T19:18:54.644Z,83.10
2017-11-17T19:21:22.709Z,83.50
2017-11-17T19:23:51.203Z,84.00
2017-11-17T19:26:19.366Z,83.60
2017-11-17T19:28:47.445Z,83.40
2017-11-17T19:31:15.607Z,84.20
2017-11-17T19:33:43.689Z,83.30
2017-11-17T19:36:11.755Z,83.50
2017-11-17T19:38:40.347Z,83.40
2017-11-17T19:41:08.409Z,82.80
2017-11-17T19:43:36.498Z,82.50
2017-11-17T19:46:04.657Z,82.60
2017-11-17T19:48:32.724Z,82.90
2017-11-17T19:51:00.790Z,82.90
2017-11-17T19:53:28.889Z,82.80
2017-11-17T19:55:57.758Z,83.30
2017-11-17T19:58:25.830Z,83.30
2017-11-17T20:00:53.904Z,84.00
2017-11-17T20:03:21.989Z,83.90
2017-11-17T20:05:50.840Z,84.90
2017-11-17T20:08:19.076Z,84.00
2017-11-17T20:10:47.152Z,83.90
2017-11-17T20:13:15.602Z,83.90
2017-11-17T20:15:44.444Z,84.30
2017-11-17T20:18:12.541Z,84.30
2017-11-17T20:20:40.619Z,83.80
2017-11-17T20:23:08.779Z,84.90
2017-11-17T20:25:36.868Z,83.90
2017-11-17T20:28:04.941Z,84.00
2017-11-17T20:30:33.788Z,84.00
2017-11-17T20:33:01.885Z,84.00
2017-11-17T20:35:29.976Z,83.80
2017-11-17T20:37:58.805Z,83.90
2017-11-17T20:40:26.875Z,83.90
2017-11-17T20:42:56.490Z,83.80
2017-11-17T20:45:24.558Z,83.80
2017-11-17T20:47:52.670Z,83.90
2017-11-17T20:50:20.838Z,83.80
2017-11-17T20:52:49.225Z,83.80
2017-11-17T20:55:17.310Z,85.40
2017-11-17T20:57:46.136Z,87.10
2017-11-17T21:00:14.197Z,87.00
2017-11-17T21:02:42.264Z,87.10
2017-11-17T21:05:10.833Z,87.10
2017-11-17T21:07:38.921Z,86.80
2017-11-17T21:10:07.044Z,86.60
2017-11-17T21:12:35.725Z,86.90
2017-11-17T21:15:03.884Z,86.30
2017-11-17T21:17:31.939Z,86.20
2017-11-17T21:20:00.003Z,86.60
2017-11-17T21:22:28.090Z,87.10
2017-11-17T21:24:56.287Z,87.10
2017-11-17T21:27:24.347Z,86.70
2017-11-17T21:29:52.419Z,87.60
2017-11-17T21:32:20.484Z,87.20
2017-11-17T21:34:48.577Z,88.10
2017-11-17T21:37:16.745Z,89.00
2017-11-17T21:39:44.811Z,88.90
2017-11-17T21:42:12.883Z,89.00
2017-11-17T21:44:40.972Z,88.90
2017-11-17T21:47:09.061Z,89.10
2017-11-17T21:49:37.145Z,89.50
2017-11-17T21:52:05.214Z,90.00
2017-11-17T21:54:33.294Z,90.00
2017-11-17T21:57:01.366Z,90.20
2017-11-17T21:59:29.417Z,90.30
2017-11-17T22:01:57.487Z,90.10
2017-11-17T22:04:25.608Z,90.00
2017-11-17T22:06:53.681Z,89.70
2017-11-17T22:09:21.751Z,90.10
2017-11-17T22:11:49.822Z,90.20
2017-11-17T22:14:17.990Z,90.20
2017-11-17T22:16:46.060Z,90.20
2017-11-17T22:19:14.120Z,90.30
2017-11-17T22:21:42.205Z,90.50
2017-11-17T22:24:10.266Z,90.50
2017-11-17T22:26:38.352Z,90.70
2017-11-17T22:29:06.418Z,90.70
2017-11-17T22:31:34.497Z,90.70
2017-11-17T22:34:03.368Z,90.60
2017-11-17T22:36:31.657Z,90.90
2017-11-17T22:39:00.103Z,91.00
2017-11-17T22:41:28.181Z,91.00
2017-11-17T22:43:56.245Z,90.90
2017-11-17T22:46:25.197Z,90.90
2017-11-17T22:48:54.032Z,91.10
2017-11-17T22:51:22.101Z,91.00
2017-11-17T22:53:50.821Z,91.10
2017-11-17T22:56:18.877Z,91.10
2017-11-17T22:58:46.949Z,90.90
2017-11-17T23:01:15.027Z,91.10
2017-11-17T23:03:43.109Z,91.00
2017-11-17T23:06:12.357Z,91.60
2017-11-17T23:08:40.424Z,91.20
2017-11-17T23:11:08.590Z,91.30
2017-11-17T23:13:36.673Z,91.30
2017-11-17T23:16:04.755Z,91.60
2017-11-17T23:18:32.828Z,91.30
2017-11-17T23:21:00.884Z,91.30
2017-11-17T23:23:28.959Z,91.10
2017-11-17T23:25:57.057Z,91.10
2017-11-17T23:28:25.125Z,90.90
2017-11-17T23:30:53.196Z,91.00
2017-11-17T23:33:21.296Z,91.00
2017-11-17T23:35:49.369Z,90.90
2017-11-17T23:38:18.216Z,91.00
2017-11-17T23:40:46.295Z,91.00
2017-11-17T23:43:14.365Z,91.20
2017-11-17T23:45:42.448Z,91.20
2017-11-17T23:48:10.513Z,91.30
2017-11-17T23:50:38.592Z,91.40
2017-11-17T23:53:06.681Z,91.20
2017-11-17T23:55:35.532Z,91.30
2017-11-17T23:58:03.601Z,91.30
